sensor_id;sensor_type;location;lat;lon;timestamp;pressure;altitude;pressure_sealevel;temperature;humidity
19236;BME280;9752;54.270;12.470;2023-09-12T00:01:44;102972.31;;;16.68;100.00
19236;BME280;9752;54.270;12.470;2023-09-12T00:06:46;102981.78;;;16.66;100.00
19236;BME280;9752;54.270;12.470;2023-09-12T00:11:49;102988.84;;;16.67;100.00
19236;BME280;9752;54.270;12.470;2023-09-12T00:16:50;102998.34;;;16.53;100.00
19236;BME280;9752;54.270;12.470;2023-09-12T00:21:55;103005.06;;;16.50;100.00
19236;BME280;9752;54.270;12.470;2023-09-12T00:26:58;103012.16;;;16.51;100.00
19236;BME280;9752;54.270;12.470;2023-09-12T00:32:00;103003.75;;;16.43;100.00
19236;BME280;9752;54.270;12.470;2023-09-12T00:37:02;103009.44;;;16.37;100.00
19236;BME280;9752;54.270;12.470;2023-09-12T00:42:05;103010.59;;;16.29;100.00
19236;BME280;9752;54.270;12.470;2023-09-12T00:47:08;103014.91;;;16.29;100.00
19236;BME280;9752;54.270;12.470;2023-09-12T00:52:13;103026.06;;;16.38;100.00
19236;BME280;9752;54.270;12.470;2023-09-12T00:57:16;103014.53;;;16.48;100.00
19236;BME280;9752;54.270;12.470;2023-09-12T01:02:18;103030.22;;;16.59;100.00
19236;BME280;9752;54.270;12.470;2023-09-12T01:07:20;103037.72;;;16.67;100.00
19236;BME280;9752;54.270;12.470;2023-09-12T01:12:23;103040.09;;;16.75;100.00
19236;BME280;9752;54.270;12.470;2023-09-12T01:17:25;103054.41;;;16.81;100.00
19236;BME280;9752;54.270;12.470;2023-09-12T01:22:44;103052.63;;;16.79;100.00
19236;BME280;9752;54.270;12.470;2023-09-12T01:27:50;103044.44;;;16.63;100.00
19236;BME280;9752;54.270;12.470;2023-09-12T01:32:53;103033.88;;;16.50;100.00
19236;BME280;9752;54.270;12.470;2023-09-12T01:37:55;103016.84;;;16.43;100.00
19236;BME280;9752;54.270;12.470;2023-09-12T01:42:59;103016.50;;;16.38;100.00
19236;BME280;9752;54.270;12.470;2023-09-12T01:48:04;103011.41;;;16.28;100.00
19236;BME280;9752;54.270;12.470;2023-09-12T01:53:07;103006.03;;;16.27;100.00
19236;BME280;9752;54.270;12.470;2023-09-12T01:58:11;103006.50;;;16.21;100.00
19236;BME280;9752;54.270;12.470;2023-09-12T02:03:13;103024.97;;;16.23;100.00
19236;BME280;9752;54.270;12.470;2023-09-12T02:08:14;103027.47;;;16.21;100.00
19236;BME280;9752;54.270;12.470;2023-09-12T02:13:17;103040.88;;;16.26;100.00
19236;BME280;9752;54.270;12.470;2023-09-12T02:18:19;103045.09;;;16.35;100.00
19236;BME280;9752;54.270;12.470;2023-09-12T02:23:21;103042.38;;;16.34;100.00
19236;BME280;9752;54.270;12.470;2023-09-12T02:28:24;103027.31;;;16.31;100.00
19236;BME280;9752;54.270;12.470;2023-09-12T02:33:26;103020.97;;;16.28;100.00
19236;BME280;9752;54.270;12.470;2023-09-12T02:38:28;103026.09;;;16.26;100.00
19236;BME280;9752;54.270;12.470;2023-09-12T02:43:31;103036.09;;;16.20;100.00
19236;BME280;9752;54.270;12.470;2023-09-12T02:48:33;103037.84;;;16.08;100.00
19236;BME280;9752;54.270;12.470;2023-09-12T02:53:35;103034.06;;;16.04;100.00
19236;BME280;9752;54.270;12.470;2023-09-12T02:58:38;103033.19;;;16.04;100.00
19236;BME280;9752;54.270;12.470;2023-09-12T03:03:39;103046.47;;;16.07;100.00
19236;BME280;9752;54.270;12.470;2023-09-12T03:08:42;103058.19;;;16.35;100.00
19236;BME280;9752;54.270;12.470;2023-09-12T03:13:45;103084.91;;;16.55;100.00
19236;BME280;9752;54.270;12.470;2023-09-12T03:18:47;103083.31;;;16.57;100.00
19236;BME280;9752;54.270;12.470;2023-09-12T03:23:49;103069.09;;;16.53;100.00
19236;BME280;9752;54.270;12.470;2023-09-12T03:28:52;103067.69;;;16.70;100.00
19236;BME280;9752;54.270;12.470;2023-09-12T03:33:54;103068.25;;;16.66;100.00
19236;BME280;9752;54.270;12.470;2023-09-12T03:38:56;103050.28;;;16.59;100.00
19236;BME280;9752;54.270;12.470;2023-09-12T03:44:00;103020.13;;;16.52;100.00
19236;BME280;9752;54.270;12.470;2023-09-12T03:49:01;103001.13;;;16.43;100.00
19236;BME280;9752;54.270;12.470;2023-09-12T03:54:04;103006.13;;;16.40;100.00
19236;BME280;9752;54.270;12.470;2023-09-12T03:59:07;103007.03;;;16.40;100.00
19236;BME280;9752;54.270;12.470;2023-09-12T04:04:09;102993.16;;;16.42;100.00
19236;BME280;9752;54.270;12.470;2023-09-12T04:09:10;102989.59;;;16.53;100.00
19236;BME280;9752;54.270;12.470;2023-09-12T04:14:14;102966.72;;;16.38;100.00
19236;BME280;9752;54.270;12.470;2023-09-12T04:19:16;102954.09;;;16.33;100.00
19236;BME280;9752;54.270;12.470;2023-09-12T04:24:18;102952.72;;;16.38;100.00
19236;BME280;9752;54.270;12.470;2023-09-12T04:29:21;102958.66;;;16.35;100.00
19236;BME280;9752;54.270;12.470;2023-09-12T04:34:23;102946.78;;;16.40;100.00
19236;BME280;9752;54.270;12.470;2023-09-12T04:39:24;102972.81;;;16.63;100.00
19236;BME280;9752;54.270;12.470;2023-09-12T04:44:28;102998.16;;;16.87;100.00
19236;BME280;9752;54.270;12.470;2023-09-12T04:49:29;103045.28;;;17.37;100.00
19236;BME280;9752;54.270;12.470;2023-09-12T04:54:31;103074.31;;;17.66;100.00
19236;BME280;9752;54.270;12.470;2023-09-12T04:59:35;103093.84;;;17.83;100.00
19236;BME280;9752;54.270;12.470;2023-09-12T05:04:37;103169.19;;;18.36;100.00
19236;BME280;9752;54.270;12.470;2023-09-12T05:09:39;103206.31;;;18.53;100.00
19236;BME280;9752;54.270;12.470;2023-09-12T05:14:42;103240.47;;;18.67;100.00
19236;BME280;9752;54.270;12.470;2023-09-12T05:19:44;103258.88;;;18.67;100.00
19236;BME280;9752;54.270;12.470;2023-09-12T05:24:46;103297.59;;;18.69;100.00
19236;BME280;9752;54.270;12.470;2023-09-12T05:29:49;103312.59;;;18.70;100.00
19236;BME280;9752;54.270;12.470;2023-09-12T05:34:50;103325.13;;;18.75;100.00
19236;BME280;9752;54.270;12.470;2023-09-12T05:39:52;103334.13;;;18.78;100.00
19236;BME280;9752;54.270;12.470;2023-09-12T05:44:55;103347.50;;;18.95;100.00
19236;BME280;9752;54.270;12.470;2023-09-12T05:49:57;103336.38;;;18.85;100.00
19236;BME280;9752;54.270;12.470;2023-09-12T05:55:00;103313.81;;;18.89;100.00
19236;BME280;9752;54.270;12.470;2023-09-12T06:00:04;103300.66;;;18.89;100.00
19236;BME280;9752;54.270;12.470;2023-09-12T06:05:12;103284.38;;;18.81;100.00
19236;BME280;9752;54.270;12.470;2023-09-12T06:10:14;103263.66;;;18.86;100.00
19236;BME280;9752;54.270;12.470;2023-09-12T06:15:17;103285.69;;;19.15;100.00
19236;BME280;9752;54.270;12.470;2023-09-12T06:20:18;103282.84;;;19.25;100.00
19236;BME280;9752;54.270;12.470;2023-09-12T06:25:20;103267.22;;;19.41;100.00
19236;BME280;9752;54.270;12.470;2023-09-12T06:30:23;103217.66;;;19.34;100.00
19236;BME280;9752;54.270;12.470;2023-09-12T06:35:25;103213.38;;;19.93;100.00
19236;BME280;9752;54.270;12.470;2023-09-12T06:40:26;103210.13;;;20.26;100.00
19236;BME280;9752;54.270;12.470;2023-09-12T06:45:29;103159.22;;;21.05;100.00
19236;BME280;9752;54.270;12.470;2023-09-12T06:50:33;103061.38;;;21.51;100.00
19236;BME280;9752;54.270;12.470;2023-09-12T06:55:34;102949.47;;;21.48;100.00
19236;BME280;9752;54.270;12.470;2023-09-12T07:00:37;102864.81;;;21.44;100.00
19236;BME280;9752;54.270;12.470;2023-09-12T07:05:41;102772.47;;;20.74;100.00
19236;BME280;9752;54.270;12.470;2023-09-12T07:10:44;102700.03;;;20.50;100.00
19236;BME280;9752;54.270;12.470;2023-09-12T07:15:48;102653.34;;;20.47;100.00
19236;BME280;9752;54.270;12.470;2023-09-12T07:20:57;102601.88;;;20.37;100.00
19236;BME280;9752;54.270;12.470;2023-09-12T07:25:58;102557.47;;;20.27;100.00
19236;BME280;9752;54.270;12.470;2023-09-12T07:31:01;102538.94;;;20.25;100.00
19236;BME280;9752;54.270;12.470;2023-09-12T07:36:04;102485.06;;;20.01;100.00
19236;BME280;9752;54.270;12.470;2023-09-12T07:41:05;102343.81;;;20.22;100.00
19236;BME280;9752;54.270;12.470;2023-09-12T07:46:08;102287.50;;;20.20;100.00
19236;BME280;9752;54.270;12.470;2023-09-12T07:51:14;102266.81;;;20.49;100.00
19236;BME280;9752;54.270;12.470;2023-09-12T07:56:17;102230.66;;;20.87;100.00
19236;BME280;9752;54.270;12.470;2023-09-12T08:01:20;102198.28;;;20.91;100.00
19236;BME280;9752;54.270;12.470;2023-09-12T08:06:22;102156.66;;;20.84;100.00
19236;BME280;9752;54.270;12.470;2023-09-12T08:11:25;102097.69;;;20.38;100.00
19236;BME280;9752;54.270;12.470;2023-09-12T08:16:28;102089.25;;;20.91;100.00
19236;BME280;9752;54.270;12.470;2023-09-12T08:21:31;102059.97;;;21.31;100.00
19236;BME280;9752;54.270;12.470;2023-09-12T08:26:33;101993.94;;;21.54;100.00
19236;BME280;9752;54.270;12.470;2023-09-12T08:31:36;101917.38;;;22.10;100.00
19236;BME280;9752;54.270;12.470;2023-09-12T08:36:37;101838.25;;;22.14;100.00
19236;BME280;9752;54.270;12.470;2023-09-12T08:41:39;101802.66;;;21.73;100.00
19236;BME280;9752;54.270;12.470;2023-09-12T08:46:42;101808.00;;;20.93;100.00
19236;BME280;9752;54.270;12.470;2023-09-12T08:51:44;101819.66;;;20.74;100.00
19236;BME280;9752;54.270;12.470;2023-09-12T08:56:46;101853.69;;;20.67;100.00
19236;BME280;9752;54.270;12.470;2023-09-12T09:01:49;101855.97;;;20.58;100.00
19236;BME280;9752;54.270;12.470;2023-09-12T09:06:53;101893.06;;;20.87;100.00
19236;BME280;9752;54.270;12.470;2023-09-12T09:11:55;101879.09;;;20.65;100.00
19236;BME280;9752;54.270;12.470;2023-09-12T09:16:59;101891.97;;;21.06;100.00
19236;BME280;9752;54.270;12.470;2023-09-12T09:22:05;101868.91;;;21.52;100.00
19236;BME280;9752;54.270;12.470;2023-09-12T09:27:07;101837.88;;;22.02;100.00
19236;BME280;9752;54.270;12.470;2023-09-12T09:32:17;101733.06;;;22.33;100.00
19236;BME280;9752;54.270;12.470;2023-09-12T09:37:19;101653.78;;;23.04;100.00
19236;BME280;9752;54.270;12.470;2023-09-12T09:42:20;101617.34;;;23.32;100.00
19236;BME280;9752;54.270;12.470;2023-09-12T09:47:24;101594.59;;;23.42;100.00
19236;BME280;9752;54.270;12.470;2023-09-12T09:52:26;101582.16;;;23.37;100.00
19236;BME280;9752;54.270;12.470;2023-09-12T09:57:28;101555.84;;;23.94;100.00
19236;BME280;9752;54.270;12.470;2023-09-12T10:02:31;101546.72;;;24.28;100.00
19236;BME280;9752;54.270;12.470;2023-09-12T10:07:33;101534.97;;;23.62;100.00
19236;BME280;9752;54.270;12.470;2023-09-12T10:12:44;101535.31;;;24.34;100.00
19236;BME280;9752;54.270;12.470;2023-09-12T10:17:56;101538.28;;;23.52;100.00
19236;BME280;9752;54.270;12.470;2023-09-12T10:23:04;101542.41;;;23.36;100.00
19236;BME280;9752;54.270;12.470;2023-09-12T10:28:09;101543.03;;;22.83;100.00
19236;BME280;9752;54.270;12.470;2023-09-12T10:33:13;101544.41;;;23.04;100.00
19236;BME280;9752;54.270;12.470;2023-09-12T10:38:16;101543.16;;;22.89;100.00
19236;BME280;9752;54.270;12.470;2023-09-12T10:43:20;101543.84;;;23.20;100.00
19236;BME280;9752;54.270;12.470;2023-09-12T10:48:24;101539.56;;;23.27;100.00
19236;BME280;9752;54.270;12.470;2023-09-12T10:53:26;101535.59;;;23.05;100.00
19236;BME280;9752;54.270;12.470;2023-09-12T10:58:29;101537.66;;;22.80;100.00
19236;BME280;9752;54.270;12.470;2023-09-12T11:03:38;101551.09;;;22.48;100.00
19236;BME280;9752;54.270;12.470;2023-09-12T11:08:40;101556.75;;;22.29;100.00
19236;BME280;9752;54.270;12.470;2023-09-12T11:13:43;101555.22;;;22.38;100.00
19236;BME280;9752;54.270;12.470;2023-09-12T11:19:14;101559.56;;;22.35;100.00
19236;BME280;9752;54.270;12.470;2023-09-12T11:24:17;101541.84;;;21.96;100.00
19236;BME280;9752;54.270;12.470;2023-09-12T11:29:18;101551.75;;;22.06;100.00
19236;BME280;9752;54.270;12.470;2023-09-12T11:34:24;101539.78;;;21.84;100.00
19236;BME280;9752;54.270;12.470;2023-09-12T11:39:28;101550.09;;;22.10;100.00
19236;BME280;9752;54.270;12.470;2023-09-12T11:44:31;101552.84;;;21.79;100.00
19236;BME280;9752;54.270;12.470;2023-09-12T11:49:36;101555.34;;;21.73;100.00
19236;BME280;9752;54.270;12.470;2023-09-12T11:54:39;101549.75;;;21.62;100.00
19236;BME280;9752;54.270;12.470;2023-09-12T11:59:42;101551.31;;;21.88;100.00
19236;BME280;9752;54.270;12.470;2023-09-12T12:04:46;101547.84;;;21.90;100.00
19236;BME280;9752;54.270;12.470;2023-09-12T12:09:48;101543.13;;;22.86;100.00
19236;BME280;9752;54.270;12.470;2023-09-12T12:14:50;101534.75;;;23.06;100.00
19236;BME280;9752;54.270;12.470;2023-09-12T12:19:53;101531.03;;;22.58;100.00
19236;BME280;9752;54.270;12.470;2023-09-12T12:25:05;101519.69;;;22.64;100.00
19236;BME280;9752;54.270;12.470;2023-09-12T12:30:09;101524.06;;;22.61;100.00
19236;BME280;9752;54.270;12.470;2023-09-12T12:35:17;101517.63;;;22.90;100.00
19236;BME280;9752;54.270;12.470;2023-09-12T12:40:19;101521.38;;;23.44;100.00
19236;BME280;9752;54.270;12.470;2023-09-12T12:45:22;101500.75;;;23.27;100.00
19236;BME280;9752;54.270;12.470;2023-09-12T12:50:25;101495.88;;;23.50;100.00
19236;BME280;9752;54.270;12.470;2023-09-12T12:55:27;101497.00;;;23.16;100.00
19236;BME280;9752;54.270;12.470;2023-09-12T13:00:29;101494.50;;;23.72;100.00
19236;BME280;9752;54.270;12.470;2023-09-12T13:05:32;101491.16;;;23.80;100.00
19236;BME280;9752;54.270;12.470;2023-09-12T13:10:34;101495.03;;;23.06;100.00
19236;BME280;9752;54.270;12.470;2023-09-12T13:15:35;101497.59;;;23.03;100.00
19236;BME280;9752;54.270;12.470;2023-09-12T13:20:38;101489.44;;;22.93;100.00
19236;BME280;9752;54.270;12.470;2023-09-12T13:25:40;101477.94;;;22.91;100.00
19236;BME280;9752;54.270;12.470;2023-09-12T13:30:42;101495.56;;;23.33;100.00
19236;BME280;9752;54.270;12.470;2023-09-12T13:35:46;101486.69;;;23.30;100.00
19236;BME280;9752;54.270;12.470;2023-09-12T13:40:48;101484.84;;;22.83;100.00
19236;BME280;9752;54.270;12.470;2023-09-12T13:45:49;101484.69;;;23.16;100.00
19236;BME280;9752;54.270;12.470;2023-09-12T13:50:52;101489.66;;;23.47;100.00
19236;BME280;9752;54.270;12.470;2023-09-12T13:55:54;101495.28;;;23.18;100.00
19236;BME280;9752;54.270;12.470;2023-09-12T14:00:57;101493.53;;;23.20;100.00
19236;BME280;9752;54.270;12.470;2023-09-12T14:06:00;101488.66;;;22.96;100.00
19236;BME280;9752;54.270;12.470;2023-09-12T14:11:01;101483.94;;;23.25;100.00
19236;BME280;9752;54.270;12.470;2023-09-12T14:16:03;101491.53;;;23.54;100.00
19236;BME280;9752;54.270;12.470;2023-09-12T14:21:07;101490.09;;;23.73;100.00
19236;BME280;9752;54.270;12.470;2023-09-12T14:26:08;101476.53;;;23.53;100.00
19236;BME280;9752;54.270;12.470;2023-09-12T14:31:10;101476.06;;;22.84;100.00
19236;BME280;9752;54.270;12.470;2023-09-12T14:36:15;101482.31;;;22.47;100.00
19236;BME280;9752;54.270;12.470;2023-09-12T14:41:17;101484.75;;;22.37;100.00
19236;BME280;9752;54.270;12.470;2023-09-12T14:46:19;101476.19;;;22.13;100.00
19236;BME280;9752;54.270;12.470;2023-09-12T14:51:23;101453.88;;;22.00;100.00
19236;BME280;9752;54.270;12.470;2023-09-12T14:56:25;101476.25;;;21.78;100.00
19236;BME280;9752;54.270;12.470;2023-09-12T15:01:26;101489.94;;;21.63;100.00
19236;BME280;9752;54.270;12.470;2023-09-12T15:06:29;101516.94;;;21.53;100.00
19236;BME280;9752;54.270;12.470;2023-09-12T15:11:33;101529.47;;;21.60;100.00
19236;BME280;9752;54.270;12.470;2023-09-12T15:16:35;101540.63;;;21.50;100.00
19236;BME280;9752;54.270;12.470;2023-09-12T15:21:38;101563.50;;;21.20;100.00
19236;BME280;9752;54.270;12.470;2023-09-12T15:26:39;101592.09;;;21.05;100.00
19236;BME280;9752;54.270;12.470;2023-09-12T15:31:41;101613.56;;;20.89;100.00
19236;BME280;9752;54.270;12.470;2023-09-12T15:36:45;101630.53;;;20.70;100.00
19236;BME280;9752;54.270;12.470;2023-09-12T15:41:47;101632.22;;;20.67;100.00
19236;BME280;9752;54.270;12.470;2023-09-12T15:46:49;101644.03;;;20.53;100.00
19236;BME280;9752;54.270;12.470;2023-09-12T15:51:52;101652.00;;;20.29;100.00
19236;BME280;9752;54.270;12.470;2023-09-12T15:56:53;101685.78;;;20.15;100.00
19236;BME280;9752;54.270;12.470;2023-09-12T16:01:55;101748.66;;;20.06;100.00
19236;BME280;9752;54.270;12.470;2023-09-12T16:06:58;101778.25;;;19.99;100.00
19236;BME280;9752;54.270;12.470;2023-09-12T16:12:00;101811.59;;;19.98;100.00
19236;BME280;9752;54.270;12.470;2023-09-12T16:17:01;101829.13;;;19.98;100.00
19236;BME280;9752;54.270;12.470;2023-09-12T16:22:04;101864.44;;;20.03;100.00
19236;BME280;9752;54.270;12.470;2023-09-12T16:27:08;101903.88;;;20.01;100.00
19236;BME280;9752;54.270;12.470;2023-09-12T16:32:09;101937.34;;;20.04;100.00
19236;BME280;9752;54.270;12.470;2023-09-12T16:37:12;101966.25;;;20.02;100.00
19236;BME280;9752;54.270;12.470;2023-09-12T16:42:14;102000.19;;;19.95;100.00
19236;BME280;9752;54.270;12.470;2023-09-12T16:47:16;102036.28;;;19.97;100.00
19236;BME280;9752;54.270;12.470;2023-09-12T16:52:19;102267.28;;;20.00;100.00
19236;BME280;9752;54.270;12.470;2023-09-12T16:57:20;102288.81;;;19.91;100.00
19236;BME280;9752;54.270;12.470;2023-09-12T17:02:22;102308.41;;;19.78;100.00
19236;BME280;9752;54.270;12.470;2023-09-12T17:07:27;102334.47;;;19.72;100.00
19236;BME280;9752;54.270;12.470;2023-09-12T17:12:29;102367.53;;;19.67;100.00
19236;BME280;9752;54.270;12.470;2023-09-12T17:17:30;102461.22;;;19.63;100.00
19236;BME280;9752;54.270;12.470;2023-09-12T17:22:33;102476.06;;;19.61;100.00
19236;BME280;9752;54.270;12.470;2023-09-12T17:27:35;102501.25;;;19.56;100.00
19236;BME280;9752;54.270;12.470;2023-09-12T17:32:38;102528.84;;;19.46;100.00
19236;BME280;9752;54.270;12.470;2023-09-12T17:37:41;102533.53;;;19.36;100.00
19236;BME280;9752;54.270;12.470;2023-09-12T17:42:42;102552.06;;;19.21;100.00
19236;BME280;9752;54.270;12.470;2023-09-12T17:47:44;102579.41;;;19.08;100.00
19236;BME280;9752;54.270;12.470;2023-09-12T17:52:47;102591.13;;;18.82;100.00
19236;BME280;9752;54.270;12.470;2023-09-12T17:57:49;102607.88;;;18.52;100.00
19236;BME280;9752;54.270;12.470;2023-09-12T18:02:52;102632.75;;;18.43;100.00
19236;BME280;9752;54.270;12.470;2023-09-12T18:07:55;102644.34;;;18.31;100.00
19236;BME280;9752;54.270;12.470;2023-09-12T18:12:56;102675.59;;;18.42;100.00
19236;BME280;9752;54.270;12.470;2023-09-12T18:17:58;102682.56;;;18.11;100.00
19236;BME280;9752;54.270;12.470;2023-09-12T18:23:01;102693.50;;;17.89;100.00
19236;BME280;9752;54.270;12.470;2023-09-12T18:28:04;102704.06;;;17.76;100.00
19236;BME280;9752;54.270;12.470;2023-09-12T18:33:06;102719.75;;;17.61;100.00
19236;BME280;9752;54.270;12.470;2023-09-12T18:38:09;102735.13;;;17.55;100.00
19236;BME280;9752;54.270;12.470;2023-09-12T18:43:11;102760.78;;;17.46;100.00
19236;BME280;9752;54.270;12.470;2023-09-12T18:48:12;102770.69;;;17.36;100.00
19236;BME280;9752;54.270;12.470;2023-09-12T18:53:16;102806.69;;;17.39;100.00
19236;BME280;9752;54.270;12.470;2023-09-12T18:58:18;102824.75;;;17.34;100.00
19236;BME280;9752;54.270;12.470;2023-09-12T19:03:19;102834.34;;;17.21;100.00
19236;BME280;9752;54.270;12.470;2023-09-12T19:08:22;102851.28;;;17.12;100.00
19236;BME280;9752;54.270;12.470;2023-09-12T19:13:24;102868.94;;;17.02;100.00
19236;BME280;9752;54.270;12.470;2023-09-12T19:18:26;102904.09;;;17.05;100.00
19236;BME280;9752;54.270;12.470;2023-09-12T19:23:29;102931.28;;;17.19;100.00
19236;BME280;9752;54.270;12.470;2023-09-12T19:28:31;102945.06;;;17.16;100.00
19236;BME280;9752;54.270;12.470;2023-09-12T19:33:32;102945.03;;;17.03;100.00
19236;BME280;9752;54.270;12.470;2023-09-12T19:38:35;102961.09;;;16.83;100.00
19236;BME280;9752;54.270;12.470;2023-09-12T19:43:37;102974.28;;;16.59;100.00
19236;BME280;9752;54.270;12.470;2023-09-12T19:48:39;102978.22;;;16.52;100.00
19236;BME280;9752;54.270;12.470;2023-09-12T19:53:42;103000.84;;;16.52;100.00
19236;BME280;9752;54.270;12.470;2023-09-12T19:58:44;103039.94;;;16.49;100.00
19236;BME280;9752;54.270;12.470;2023-09-12T20:03:45;103052.50;;;16.41;100.00
19236;BME280;9752;54.270;12.470;2023-09-12T20:08:48;103061.84;;;16.37;100.00
19236;BME280;9752;54.270;12.470;2023-09-12T20:13:50;103064.56;;;16.39;100.00
19236;BME280;9752;54.270;12.470;2023-09-12T20:18:52;103071.63;;;16.40;100.00
19236;BME280;9752;54.270;12.470;2023-09-12T20:23:54;103094.38;;;16.53;100.00
19236;BME280;9752;54.270;12.470;2023-09-12T20:28:56;103121.72;;;16.56;100.00
19236;BME280;9752;54.270;12.470;2023-09-12T20:33:58;103142.81;;;16.58;100.00
19236;BME280;9752;54.270;12.470;2023-09-12T20:39:22;103150.41;;;16.55;100.00
19236;BME280;9752;54.270;12.470;2023-09-12T20:44:25;103144.50;;;16.46;100.00
19236;BME280;9752;54.270;12.470;2023-09-12T20:49:26;103152.34;;;16.46;100.00
19236;BME280;9752;54.270;12.470;2023-09-12T20:54:31;103153.84;;;16.42;100.00
19236;BME280;9752;54.270;12.470;2023-09-12T20:59:33;103153.28;;;16.34;100.00
19236;BME280;9752;54.270;12.470;2023-09-12T21:04:35;103155.78;;;16.21;100.00
19236;BME280;9752;54.270;12.470;2023-09-12T21:09:39;103157.47;;;16.09;100.00
19236;BME280;9752;54.270;12.470;2023-09-12T21:14:40;103151.88;;;16.04;100.00
19236;BME280;9752;54.270;12.470;2023-09-12T21:19:42;103158.84;;;16.04;100.00
19236;BME280;9752;54.270;12.470;2023-09-12T21:24:45;103178.19;;;16.17;100.00
19236;BME280;9752;54.270;12.470;2023-09-12T21:29:47;103173.53;;;16.13;100.00
19236;BME280;9752;54.270;12.470;2023-09-12T21:34:48;103179.09;;;16.18;100.00
19236;BME280;9752;54.270;12.470;2023-09-12T21:39:51;103187.94;;;15.96;100.00
19236;BME280;9752;54.270;12.470;2023-09-12T21:44:53;103187.47;;;15.90;100.00
19236;BME280;9752;54.270;12.470;2023-09-12T21:49:54;103186.59;;;15.90;100.00
19236;BME280;9752;54.270;12.470;2023-09-12T21:54:57;103183.91;;;15.78;100.00
19236;BME280;9752;54.270;12.470;2023-09-12T21:59:59;103182.38;;;15.70;100.00
19236;BME280;9752;54.270;12.470;2023-09-12T22:05:19;103180.06;;;15.62;100.00
19236;BME280;9752;54.270;12.470;2023-09-12T22:10:22;103185.09;;;15.59;100.00
19236;BME280;9752;54.270;12.470;2023-09-12T22:15:23;103172.31;;;15.52;100.00
19236;BME280;9752;54.270;12.470;2023-09-12T22:20:25;103185.94;;;15.48;100.00
19236;BME280;9752;54.270;12.470;2023-09-12T22:25:28;103199.38;;;15.53;100.00
19236;BME280;9752;54.270;12.470;2023-09-12T22:30:30;103216.22;;;15.56;100.00
19236;BME280;9752;54.270;12.470;2023-09-12T22:35:31;103231.56;;;15.74;100.00
19236;BME280;9752;54.270;12.470;2023-09-12T22:40:34;103252.78;;;15.89;100.00
19236;BME280;9752;54.270;12.470;2023-09-12T22:45:36;103248.84;;;15.94;100.00
19236;BME280;9752;54.270;12.470;2023-09-12T22:50:38;103263.97;;;15.98;100.00
19236;BME280;9752;54.270;12.470;2023-09-12T22:55:44;103279.47;;;16.07;100.00
19236;BME280;9752;54.270;12.470;2023-09-12T23:00:46;103294.75;;;16.12;100.00
19236;BME280;9752;54.270;12.470;2023-09-12T23:05:48;103291.94;;;16.21;100.00
19236;BME280;9752;54.270;12.470;2023-09-12T23:10:51;103281.59;;;16.23;100.00
19236;BME280;9752;54.270;12.470;2023-09-12T23:15:52;103269.28;;;16.22;100.00
19236;BME280;9752;54.270;12.470;2023-09-12T23:20:54;103270.88;;;16.19;100.00
19236;BME280;9752;54.270;12.470;2023-09-12T23:25:57;103267.44;;;16.09;100.00
19236;BME280;9752;54.270;12.470;2023-09-12T23:30:59;103245.06;;;15.90;100.00
19236;BME280;9752;54.270;12.470;2023-09-12T23:36:01;103238.84;;;15.78;100.00
19236;BME280;9752;54.270;12.470;2023-09-12T23:41:04;103216.94;;;15.66;100.00
19236;BME280;9752;54.270;12.470;2023-09-12T23:46:05;103208.63;;;15.59;100.00
19236;BME280;9752;54.270;12.470;2023-09-12T23:51:07;103209.16;;;15.55;100.00
19236;BME280;9752;54.270;12.470;2023-09-12T23:56:10;103204.47;;;15.51;100.00
